Time;durP1;ratioP1;P1;durP2;ratioP2;P2;SDS_P1;SDS_P2;PMS_P1;PMS_P2;Temp;Humidity;BMP_temperature;BMP_pressure;BME280_temperature;BME280_humidity;BME280_pressure;Samples;Min_cycle;Max_cycle;Signal;HPM_P1;HPM_P2
2022/07/21 00:01:11;;;;;;;49.60;29.52;;;;;;;;;;4970685;28;20476;-78
2022/07/21 00:03:36;;;;;;;40.70;27.75;;;;;;;;;;4984293;28;20155;-78
2022/07/21 00:06:02;;;;;;;42.22;30.67;;;;;;;;;;5003451;28;20116;-80
2022/07/21 00:08:27;;;;;;;39.50;31.08;;;;;;;;;;4985549;28;20367;-79
2022/07/21 00:10:53;;;;;;;41.05;29.77;;;;;;;;;;5018278;28;20042;-78
2022/07/21 00:13:18;;;;;;;41.08;30.83;;;;;;;;;;5006095;28;20121;-78
2022/07/21 00:15:44;;;;;;;49.30;34.95;;;;;;;;;;5005482;28;20480;-79
2022/07/21 00:18:09;;;;;;;43.05;34.15;;;;;;;;;;5005405;28;20228;-79
2022/07/21 00:20:34;;;;;;;40.92;34.05;;;;;;;;;;5005620;28;20033;-79
2022/07/21 00:23:00;;;;;;;50.63;39.78;;;;;;;;;;5003359;28;20073;-79
2022/07/21 00:25:25;;;;;;;45.78;37.92;;;;;;;;;;5001622;28;20117;-77
2022/07/21 00:27:51;;;;;;;43.58;38.85;;;;;;;;;;5022958;28;20037;-78
2022/07/21 00:30:16;;;;;;;60.05;40.72;;;;;;;;;;4990420;28;20049;-79
2022/07/21 00:32:41;;;;;;;50.05;41.17;;;;;;;;;;4991492;28;20030;-79
2022/07/21 00:35:07;;;;;;;50.58;40.45;;;;;;;;;;4998099;28;20121;-77
2022/07/21 00:37:33;;;;;;;51.53;41.53;;;;;;;;;;5003711;28;20045;-78
2022/07/21 00:39:59;;;;;;;51.08;44.67;;;;;;;;;;5004603;28;20033;-78
2022/07/21 00:42:26;;;;;;;50.63;41.95;;;;;;;;;;5008167;28;20058;-78
2022/07/21 00:44:51;;;;;;;53.35;45.42;;;;;;;;;;4979039;28;20055;-77
2022/07/21 00:47:21;;;;;;;54.92;42.45;;;;;;;;;;4988150;28;20045;-78
2022/07/21 00:49:47;;;;;;;55.97;45.42;;;;;;;;;;5003364;28;20504;-78
2022/07/21 00:52:12;;;;;;;59.42;49.70;;;;;;;;;;5005228;28;20122;-78
2022/07/21 00:54:38;;;;;;;63.10;50.88;;;;;;;;;;4998445;28;20578;-77
2022/07/21 00:57:06;;;;;;;57.90;50.28;;;;;;;;;;5004689;28;20072;-78
2022/07/21 00:59:31;;;;;;;61.75;48.40;;;;;;;;;;5003420;28;20049;-78
2022/07/21 01:01:57;;;;;;;59.63;49.45;;;;;;;;;;5022195;28;20116;-77
2022/07/21 01:04:22;;;;;;;60.72;47.28;;;;;;;;;;5004577;28;20025;-78
2022/07/21 01:06:47;;;;;;;55.33;42.97;;;;;;;;;;5005323;28;20029;-78
2022/07/21 01:09:13;;;;;;;53.15;43.22;;;;;;;;;;5004047;28;20118;-79
2022/07/21 01:11:39;;;;;;;50.67;40.10;;;;;;;;;;5007849;28;20172;-79
2022/07/21 01:14:04;;;;;;;50.08;40.53;;;;;;;;;;4997494;28;20037;-78
2022/07/21 01:16:29;;;;;;;48.30;40.75;;;;;;;;;;4972909;28;20044;-79
2022/07/21 01:18:55;;;;;;;53.05;43.58;;;;;;;;;;4989090;28;20188;-77
2022/07/21 01:21:27;;;;;;;47.97;41.05;;;;;;;;;;5021456;28;20037;-79
2022/07/21 01:23:52;;;;;;;52.60;43.08;;;;;;;;;;5000729;28;20034;-78
2022/07/21 01:26:18;;;;;;;52.75;43.20;;;;;;;;;;5006929;28;20096;-78
2022/07/21 01:28:43;;;;;;;51.00;42.10;;;;;;;;;;5020189;28;20117;-78
2022/07/21 01:31:08;;;;;;;53.85;40.92;;;;;;;;;;5019656;28;20756;-78
2022/07/21 01:33:34;;;;;;;48.78;40.92;;;;;;;;;;5006479;28;20064;-79
2022/07/21 01:36:02;;;;;;;51.08;42.90;;;;;;;;;;5021251;28;20067;-79
2022/07/21 01:41:30;;;;;;;47.70;41.30;;;;;;;;;;5005935;28;20805;-78
2022/07/21 01:44:02;;;;;;;;;;;;;;;;;;5005780;28;20529;-79
2022/07/21 01:46:29;;;;;;;54.63;43.08;;;;;;;;;;5007125;28;20376;-79
2022/07/21 01:48:55;;;;;;;49.00;42.33;;;;;;;;;;4996404;28;20039;-79
2022/07/21 01:51:20;;;;;;;54.55;45.78;;;;;;;;;;5000828;28;20041;-79
2022/07/21 01:53:45;;;;;;;61.42;45.33;;;;;;;;;;5018393;28;20117;-78
2022/07/21 01:56:11;;;;;;;65.30;49.75;;;;;;;;;;4987804;28;20104;-79
2022/07/21 01:58:36;;;;;;;63.78;51.63;;;;;;;;;;4991482;28;20558;-78
2022/07/21 02:01:01;;;;;;;62.38;51.95;;;;;;;;;;5002633;28;20082;-79
2022/07/21 02:03:27;;;;;;;63.15;51.85;;;;;;;;;;5020533;28;20034;-79
2022/07/21 02:05:52;;;;;;;61.38;51.42;;;;;;;;;;4989471;28;20120;-78
2022/07/21 02:08:18;;;;;;;70.75;53.45;;;;;;;;;;4995035;28;20478;-78
2022/07/21 02:10:43;;;;;;;58.83;51.03;;;;;;;;;;5016884;28;20037;-79
2022/07/21 02:13:08;;;;;;;62.03;51.38;;;;;;;;;;5005201;28;20041;-77
2022/07/21 02:15:34;;;;;;;64.43;53.13;;;;;;;;;;5021468;28;20022;-78
2022/07/21 02:17:59;;;;;;;61.05;51.15;;;;;;;;;;5003475;28;20065;-78
2022/07/21 02:20:25;;;;;;;61.17;49.55;;;;;;;;;;4986026;28;20086;-77
2022/07/21 02:22:50;;;;;;;71.60;53.65;;;;;;;;;;5018779;28;20038;-78
2022/07/21 02:25:15;;;;;;;75.03;53.85;;;;;;;;;;4987131;28;20088;-79
2022/07/21 02:27:42;;;;;;;74.15;56.05;;;;;;;;;;5005488;28;20036;-79
2022/07/21 02:30:07;;;;;;;70.78;54.35;;;;;;;;;;5002184;28;20049;-78
2022/07/21 02:32:33;;;;;;;68.53;54.78;;;;;;;;;;5021940;28;20037;-79
2022/07/21 02:34:58;;;;;;;75.32;55.83;;;;;;;;;;4988093;28;20547;-78
2022/07/21 02:37:27;;;;;;;68.13;52.42;;;;;;;;;;5003847;28;20074;-78
2022/07/21 02:39:52;;;;;;;69.78;55.25;;;;;;;;;;5002760;28;20088;-78
2022/07/21 02:42:17;;;;;;;71.95;55.03;;;;;;;;;;4985458;28;20550;-78
2022/07/21 02:44:43;;;;;;;67.85;54.15;;;;;;;;;;5003044;28;20030;-78
2022/07/21 02:47:08;;;;;;;63.10;50.97;;;;;;;;;;5002514;28;20506;-78
2022/07/21 02:49:34;;;;;;;58.53;48.95;;;;;;;;;;5002959;28;20135;-77
2022/07/21 02:51:59;;;;;;;60.40;48.55;;;;;;;;;;5002932;28;20045;-79
2022/07/21 02:54:24;;;;;;;63.90;47.70;;;;;;;;;;4980635;28;20064;-78
2022/07/21 02:56:50;;;;;;;54.35;44.92;;;;;;;;;;4969569;28;20046;-79
2022/07/21 02:59:15;;;;;;;58.88;47.13;;;;;;;;;;5003466;28;20057;-78
2022/07/21 03:01:41;;;;;;;55.08;44.10;;;;;;;;;;4987716;28;20061;-78
2022/07/21 03:04:06;;;;;;;57.67;45.83;;;;;;;;;;4985681;28;21362;-77
2022/07/21 03:06:32;;;;;;;63.78;50.03;;;;;;;;;;5002380;28;20447;-78
2022/07/21 03:08:57;;;;;;;64.47;51.15;;;;;;;;;;5020712;28;20726;-79
2022/07/21 03:11:22;;;;;;;67.47;53.70;;;;;;;;;;5004163;28;20073;-78
2022/07/21 03:13:48;;;;;;;74.57;57.10;;;;;;;;;;4987375;28;20052;-78
2022/07/21 03:16:13;;;;;;;73.75;54.42;;;;;;;;;;5003671;28;20030;-78
2022/07/21 03:18:39;;;;;;;70.05;56.67;;;;;;;;;;4987828;28;20456;-78
2022/07/21 03:21:04;;;;;;;73.28;55.80;;;;;;;;;;5001541;28;20044;-79
2022/07/21 03:23:29;;;;;;;75.22;55.83;;;;;;;;;;5005499;28;20026;-79
2022/07/21 03:25:55;;;;;;;76.40;59.17;;;;;;;;;;4985353;28;20053;-78
2022/07/21 03:28:20;;;;;;;70.22;57.22;;;;;;;;;;5004290;28;20458;-78
2022/07/21 03:30:45;;;;;;;75.78;58.65;;;;;;;;;;5003179;28;20112;-78
2022/07/21 03:33:11;;;;;;;70.78;54.75;;;;;;;;;;4994979;28;20057;-78
2022/07/21 03:35:36;;;;;;;75.80;59.55;;;;;;;;;;4994806;28;20499;-78
2022/07/21 03:38:02;;;;;;;74.07;58.10;;;;;;;;;;5001972;28;20053;-79
2022/07/21 03:40:31;;;;;;;70.80;55.17;;;;;;;;;;5002846;28;20038;-79
2022/07/21 03:42:58;;;;;;;69.55;56.25;;;;;;;;;;4985265;28;20057;-78
2022/07/21 03:45:24;;;;;;;74.82;58.40;;;;;;;;;;5002796;28;20116;-78
2022/07/21 03:47:49;;;;;;;73.38;58.58;;;;;;;;;;5006014;28;20045;-78
2022/07/21 03:50:17;;;;;;;69.32;56.70;;;;;;;;;;5006988;28;20037;-78
2022/07/21 03:52:42;;;;;;;81.13;58.72;;;;;;;;;;5013136;28;20022;-78
2022/07/21 03:55:08;;;;;;;83.47;58.83;;;;;;;;;;4991159;28;20033;-78
2022/07/21 03:57:40;;;;;;;74.47;57.45;;;;;;;;;;4990332;28;20193;-78
2022/07/21 04:00:07;;;;;;;73.05;56.20;;;;;;;;;;5002194;28;20030;-72
2022/07/21 04:02:32;;;;;;;72.63;55.55;;;;;;;;;;5003529;28;20112;-73
2022/07/21 04:04:58;;;;;;;67.93;53.90;;;;;;;;;;5003108;28;20450;-73
2022/07/21 04:07:23;;;;;;;74.15;55.95;;;;;;;;;;5003911;28;20485;-72
2022/07/21 04:09:48;;;;;;;60.45;51.15;;;;;;;;;;5004296;28;20599;-72
2022/07/21 04:12:14;;;;;;;76.30;54.38;;;;;;;;;;5001394;28;20109;-73
2022/07/21 04:14:39;;;;;;;64.63;52.03;;;;;;;;;;5003625;28;20105;-73
2022/07/21 04:17:04;;;;;;;67.65;51.13;;;;;;;;;;5016758;28;20549;-73
2022/07/21 04:19:30;;;;;;;60.97;47.63;;;;;;;;;;5003755;28;20044;-73
2022/07/21 04:21:55;;;;;;;60.60;50.92;;;;;;;;;;5002587;28;20548;-73
2022/07/21 04:24:20;;;;;;;55.58;48.95;;;;;;;;;;5003804;28;20173;-73
2022/07/21 04:26:46;;;;;;;56.60;47.78;;;;;;;;;;5004820;28;20049;-73
2022/07/21 04:29:11;;;;;;;59.92;48.00;;;;;;;;;;5002174;28;20356;-73
2022/07/21 04:31:37;;;;;;;52.03;43.08;;;;;;;;;;5001919;28;20101;-72
2022/07/21 04:34:02;;;;;;;54.55;43.63;;;;;;;;;;5003577;28;20386;-72
2022/07/21 04:36:27;;;;;;;58.63;44.70;;;;;;;;;;5001423;28;20058;-72
2022/07/21 04:38:53;;;;;;;50.80;42.00;;;;;;;;;;5006472;28;20042;-79
2022/07/21 04:41:19;;;;;;;50.40;41.05;;;;;;;;;;5006681;28;20029;-79
2022/07/21 04:43:44;;;;;;;48.72;41.53;;;;;;;;;;5007777;28;20784;-79
2022/07/21 04:46:10;;;;;;;49.45;42.00;;;;;;;;;;5008613;28;20080;-79
2022/07/21 04:48:35;;;;;;;51.22;40.63;;;;;;;;;;4993366;28;20060;-78
2022/07/21 04:51:00;;;;;;;48.30;41.08;;;;;;;;;;5007486;28;20061;-78
2022/07/21 04:53:28;;;;;;;50.88;42.10;;;;;;;;;;4990606;28;20036;-78
2022/07/21 04:55:54;;;;;;;50.33;41.17;;;;;;;;;;4998073;28;20034;-79
2022/07/21 04:58:19;;;;;;;48.95;40.55;;;;;;;;;;4973862;28;20064;-79
2022/07/21 05:00:44;;;;;;;46.63;39.38;;;;;;;;;;5000297;28;20192;-79
2022/07/21 05:03:10;;;;;;;53.28;42.60;;;;;;;;;;5009306;28;20030;-79
2022/07/21 05:05:36;;;;;;;52.20;41.08;;;;;;;;;;4975966;28;20229;-79
2022/07/21 05:08:01;;;;;;;45.85;40.05;;;;;;;;;;5003879;28;20371;-79
2022/07/21 05:10:26;;;;;;;46.45;39.55;;;;;;;;;;4989803;28;20046;-79
2022/07/21 05:12:52;;;;;;;52.95;42.85;;;;;;;;;;5008732;28;20026;-79
2022/07/21 05:15:17;;;;;;;48.80;42.50;;;;;;;;;;5007555;28;20030;-79
2022/07/21 05:17:43;;;;;;;50.60;43.97;;;;;;;;;;4992572;28;20068;-79
2022/07/21 05:20:09;;;;;;;48.05;42.80;;;;;;;;;;5007727;28;20109;-79
2022/07/21 05:22:34;;;;;;;51.75;43.75;;;;;;;;;;4992371;28;20030;-79
2022/07/21 05:25:00;;;;;;;51.72;43.10;;;;;;;;;;4991650;28;20074;-79
2022/07/21 05:27:25;;;;;;;51.97;45.80;;;;;;;;;;4984941;28;20075;-79
2022/07/21 05:29:50;;;;;;;54.65;45.95;;;;;;;;;;4999657;28;20072;-79
2022/07/21 05:32:16;;;;;;;56.90;46.05;;;;;;;;;;5001126;28;20061;-79
2022/07/21 05:34:41;;;;;;;56.75;46.53;;;;;;;;;;5007184;28;20030;-79
2022/07/21 05:37:06;;;;;;;55.72;46.13;;;;;;;;;;4991939;28;20095;-79
2022/07/21 05:39:32;;;;;;;53.97;46.92;;;;;;;;;;4993340;28;20109;-79
2022/07/21 05:41:57;;;;;;;51.38;45.13;;;;;;;;;;5009186;28;20595;-79
2022/07/21 05:44:22;;;;;;;54.08;46.15;;;;;;;;;;4975417;28;20034;-79
2022/07/21 05:46:48;;;;;;;53.95;47.22;;;;;;;;;;5005847;28;20125;-79
2022/07/21 05:49:13;;;;;;;56.70;49.15;;;;;;;;;;5002033;28;20176;-78
2022/07/21 05:51:39;;;;;;;51.15;45.55;;;;;;;;;;4988733;28;20058;-79
2022/07/21 05:54:04;;;;;;;51.65;45.15;;;;;;;;;;5014464;28;20433;-79
2022/07/21 05:56:30;;;;;;;49.50;44.25;;;;;;;;;;4999971;28;20030;-79
2022/07/21 05:58:55;;;;;;;46.92;41.55;;;;;;;;;;5007766;28;20124;-79
2022/07/21 06:01:21;;;;;;;46.47;41.50;;;;;;;;;;4990052;28;20116;-79
2022/07/21 06:03:49;;;;;;;45.15;40.40;;;;;;;;;;4990572;28;20061;-79
2022/07/21 06:06:16;;;;;;;45.97;40.75;;;;;;;;;;5008975;28;20116;-79
2022/07/21 06:08:42;;;;;;;45.85;40.70;;;;;;;;;;4980960;28;20045;-79
2022/07/21 06:11:08;;;;;;;44.85;39.85;;;;;;;;;;4988644;28;20038;-79
2022/07/21 06:13:33;;;;;;;48.92;41.20;;;;;;;;;;4986484;28;20037;-79
2022/07/21 06:15:59;;;;;;;46.95;41.90;;;;;;;;;;4999087;28;20025;-79
2022/07/21 06:18:24;;;;;;;49.85;43.97;;;;;;;;;;5024750;28;20073;-79
2022/07/21 06:20:49;;;;;;;50.92;41.60;;;;;;;;;;5023657;28;20069;-78
2022/07/21 06:23:15;;;;;;;54.15;44.63;;;;;;;;;;5002768;28;20499;-78
2022/07/21 06:25:41;;;;;;;55.38;44.85;;;;;;;;;;4985696;28;20030;-79
2022/07/21 06:28:06;;;;;;;67.45;49.67;;;;;;;;;;5021074;28;20088;-79
2022/07/21 06:30:31;;;;;;;54.38;46.20;;;;;;;;;;5000841;28;20120;-79
2022/07/21 06:32:57;;;;;;;53.20;44.90;;;;;;;;;;5014783;28;20049;-78
2022/07/21 06:35:23;;;;;;;58.63;48.85;;;;;;;;;;4999742;28;20433;-78
2022/07/21 06:37:48;;;;;;;52.05;46.15;;;;;;;;;;4989319;28;20121;-78
2022/07/21 06:40:13;;;;;;;54.60;46.22;;;;;;;;;;4990608;28;20571;-78
2022/07/21 06:42:39;;;;;;;54.70;42.65;;;;;;;;;;5002880;28;20092;-78
2022/07/21 06:45:05;;;;;;;47.83;42.63;;;;;;;;;;4987005;28;20060;-79
2022/07/21 06:47:30;;;;;;;47.30;42.20;;;;;;;;;;4998831;28;20509;-79
2022/07/21 06:49:57;;;;;;;44.50;39.65;;;;;;;;;;5007479;28;20048;-79
2022/07/21 06:52:23;;;;;;;45.33;40.28;;;;;;;;;;4982426;28;20394;-79
2022/07/21 06:54:48;;;;;;;43.97;39.25;;;;;;;;;;5007212;28;20054;-79
2022/07/21 06:57:13;;;;;;;45.78;40.78;;;;;;;;;;4965881;28;20560;-80
2022/07/21 06:59:39;;;;;;;43.95;39.63;;;;;;;;;;5001273;28;20049;-79
2022/07/21 07:02:04;;;;;;;42.35;37.55;;;;;;;;;;5006665;28;20053;-80
2022/07/21 07:04:30;;;;;;;41.42;37.13;;;;;;;;;;5007303;28;20038;-79
2022/07/21 07:06:55;;;;;;;44.33;38.40;;;;;;;;;;5004642;28;20467;-79
2022/07/21 07:09:20;;;;;;;46.72;40.08;;;;;;;;;;4989615;28;20064;-79
2022/07/21 07:11:46;;;;;;;47.30;39.45;;;;;;;;;;5001173;28;20199;-79
2022/07/21 07:14:13;;;;;;;49.53;41.45;;;;;;;;;;4993292;28;20042;-79
2022/07/21 07:16:39;;;;;;;47.88;42.72;;;;;;;;;;5001589;28;20030;-80
2022/07/21 07:19:04;;;;;;;49.42;42.40;;;;;;;;;;4984445;28;20520;-80
2022/07/21 07:21:29;;;;;;;55.17;43.63;;;;;;;;;;4992445;28;20049;-80
2022/07/21 07:23:55;;;;;;;50.55;44.85;;;;;;;;;;5000369;28;20034;-80
2022/07/21 07:26:20;;;;;;;53.42;43.50;;;;;;;;;;4983336;28;20057;-80
2022/07/21 07:28:46;;;;;;;47.28;41.22;;;;;;;;;;5001008;28;20026;-80
2022/07/21 07:31:11;;;;;;;47.38;42.35;;;;;;;;;;5008194;28;20429;-80
2022/07/21 07:33:36;;;;;;;49.50;41.15;;;;;;;;;;5006959;28;20084;-79
2022/07/21 07:36:03;;;;;;;54.15;40.05;;;;;;;;;;4992468;28;20053;-79
2022/07/21 07:38:28;;;;;;;46.65;39.45;;;;;;;;;;4992340;28;20406;-79
2022/07/21 07:40:54;;;;;;;46.20;41.10;;;;;;;;;;5011000;28;20057;-79
2022/07/21 07:43:20;;;;;;;45.00;40.17;;;;;;;;;;4982778;28;20477;-79
2022/07/21 07:45:45;;;;;;;43.72;39.05;;;;;;;;;;4994788;28;20053;-79
2022/07/21 07:48:11;;;;;;;46.97;39.45;;;;;;;;;;4984001;28;20113;-79
2022/07/21 07:50:36;;;;;;;53.90;40.92;;;;;;;;;;5008613;28;20034;-79
2022/07/21 07:53:02;;;;;;;45.08;39.63;;;;;;;;;;4992948;28;20172;-79
2022/07/21 07:55:27;;;;;;;47.10;40.97;;;;;;;;;;4986894;28;20087;-79
2022/07/21 07:57:52;;;;;;;42.90;38.33;;;;;;;;;;4984248;28;20037;-79
2022/07/21 08:00:18;;;;;;;40.55;36.25;;;;;;;;;;4992232;28;20038;-80
2022/07/21 08:02:45;;;;;;;38.25;33.95;;;;;;;;;;4974837;28;20030;-80
2022/07/21 08:05:10;;;;;;;37.15;32.85;;;;;;;;;;4991658;28;20038;-80
2022/07/21 08:07:39;;;;;;;39.25;35.25;;;;;;;;;;5006431;28;20112;-78
2022/07/21 08:10:09;;;;;;;36.92;32.80;;;;;;;;;;4990957;28;20076;-79
2022/07/21 08:12:35;;;;;;;39.80;35.25;;;;;;;;;;4993341;28;20470;-80
2022/07/21 08:15:00;;;;;;;38.53;34.38;;;;;;;;;;5009015;28;20492;-80
2022/07/21 08:17:25;;;;;;;37.35;33.35;;;;;;;;;;5015692;28;20053;-80
2022/07/21 08:19:51;;;;;;;36.63;32.83;;;;;;;;;;4991886;28;20057;-80
2022/07/21 08:22:16;;;;;;;34.15;30.48;;;;;;;;;;5024111;28;20030;-80
2022/07/21 08:24:41;;;;;;;33.55;30.08;;;;;;;;;;4975417;28;20545;-80
2022/07/21 08:27:07;;;;;;;30.65;27.58;;;;;;;;;;5000498;28;20027;-80
2022/07/21 08:29:33;;;;;;;35.05;31.55;;;;;;;;;;4986778;28;20031;-80
2022/07/21 08:31:58;;;;;;;34.63;31.17;;;;;;;;;;5007250;28;20064;-80
2022/07/21 08:34:24;;;;;;;43.40;34.03;;;;;;;;;;4995387;28;20062;-79
2022/07/21 08:36:49;;;;;;;36.83;32.70;;;;;;;;;;5008786;28;20504;-79
2022/07/21 08:39:14;;;;;;;35.70;31.95;;;;;;;;;;5010860;28;20121;-79
2022/07/21 08:41:40;;;;;;;39.22;35.13;;;;;;;;;;5011992;28;20123;-79
2022/07/21 08:44:07;;;;;;;43.10;36.28;;;;;;;;;;5010647;28;20037;-80
2022/07/21 08:46:33;;;;;;;39.97;35.78;;;;;;;;;;5010991;28;20025;-80
2022/07/21 08:48:58;;;;;;;43.78;36.60;;;;;;;;;;5010707;28;20056;-79
2022/07/21 08:51:27;;;;;;;42.42;37.88;;;;;;;;;;4986614;28;20053;-79
2022/07/21 08:53:52;;;;;;;42.33;37.63;;;;;;;;;;4997287;28;20157;-80
2022/07/21 08:56:18;;;;;;;43.83;35.65;;;;;;;;;;5027314;28;20510;-80
2022/07/21 08:58:43;;;;;;;43.05;37.00;;;;;;;;;;4984638;28;20089;-79
2022/07/21 09:01:08;;;;;;;39.28;34.95;;;;;;;;;;4995408;28;20109;-79
2022/07/21 09:03:34;;;;;;;39.95;35.72;;;;;;;;;;5011246;28;20061;-79
2022/07/21 09:05:59;;;;;;;38.80;34.70;;;;;;;;;;5008564;28;20390;-79
2022/07/21 09:08:29;;;;;;;40.00;35.65;;;;;;;;;;5003866;28;20029;-80
2022/07/21 09:11:07;;;;;;;38.65;34.63;;;;;;;;;;4993667;28;20081;-80
2022/07/21 09:13:32;;;;;;;41.60;37.00;;;;;;;;;;5000692;28;20125;-80
2022/07/21 09:15:58;;;;;;;39.20;35.03;;;;;;;;;;4991246;28;20065;-79
2022/07/21 09:18:23;;;;;;;40.63;36.28;;;;;;;;;;5003564;28;20046;-79
2022/07/21 09:20:50;;;;;;;40.33;35.85;;;;;;;;;;5005606;28;20074;-80
2022/07/21 09:23:17;;;;;;;41.45;35.90;;;;;;;;;;4976277;28;20033;-79
2022/07/21 09:25:45;;;;;;;37.72;33.65;;;;;;;;;;4993483;28;20040;-79
2022/07/21 09:28:14;;;;;;;40.10;35.83;;;;;;;;;;5017905;28;20034;-79
2022/07/21 09:30:55;;;;;;;39.28;35.03;;;;;;;;;;5011540;28;20072;-79
2022/07/21 09:33:23;;;;;;;38.28;33.88;;;;;;;;;;5025630;28;20088;-79
2022/07/21 09:36:06;;;;;;;38.72;33.85;;;;;;;;;;5000919;28;20106;-79
2022/07/21 09:38:32;;;;;;;38.78;33.70;;;;;;;;;;4976274;28;20077;-78
2022/07/21 09:41:14;;;;;;;36.88;33.00;;;;;;;;;;5008581;28;20034;-79
2022/07/21 09:43:44;;;;;;;37.78;33.75;;;;;;;;;;5016037;28;20164;-79
2022/07/21 09:46:12;;;;;;;35.42;31.20;;;;;;;;;;5008139;28;20062;-79
2022/07/21 09:48:38;;;;;;;34.95;28.50;;;;;;;;;;5008492;28;20042;-79
2022/07/21 09:51:22;;;;;;;31.38;27.30;;;;;;;;;;4992661;28;20256;-79
2022/07/21 09:54:04;;;;;;;33.40;28.13;;;;;;;;;;5002013;28;20021;-79
2022/07/21 09:56:31;;;;;;;27.38;24.27;;;;;;;;;;5018817;28;20053;-78
2022/07/21 09:58:57;;;;;;;26.33;21.75;;;;;;;;;;4984507;28;20092;-78
2022/07/21 10:01:23;;;;;;;19.95;16.63;;;;;;;;;;4999393;28;20418;-78
2022/07/21 10:03:48;;;;;;;23.88;18.92;;;;;;;;;;5010155;28;20018;-79
2022/07/21 10:06:14;;;;;;;22.60;20.23;;;;;;;;;;5010171;28;20030;-79
2022/07/21 10:08:40;;;;;;;21.23;17.90;;;;;;;;;;5001080;28;20129;-79
2022/07/21 10:11:05;;;;;;;20.20;18.08;;;;;;;;;;5010656;28;20097;-79
2022/07/21 10:13:30;;;;;;;25.98;18.52;;;;;;;;;;5016548;28;20110;-79
2022/07/21 10:15:56;;;;;;;23.40;19.95;;;;;;;;;;5002501;28;20034;-79
2022/07/21 10:18:22;;;;;;;27.95;20.92;;;;;;;;;;5010624;28;20046;-79
2022/07/21 10:20:48;;;;;;;24.45;19.17;;;;;;;;;;4992902;28;20026;-79
2022/07/21 10:23:37;;;;;;;22.02;19.83;;;;;;;;;;4991677;28;20549;-79
2022/07/21 10:26:05;;;;;;;25.13;21.90;;;;;;;;;;5018553;28;20041;-79
2022/07/21 10:28:30;;;;;;;28.75;23.48;;;;;;;;;;4975899;28;20065;-79
2022/07/21 10:30:57;;;;;;;30.77;26.42;;;;;;;;;;5003278;28;20038;-79
2022/07/21 10:33:45;;;;;;;26.77;23.92;;;;;;;;;;5012536;28;20091;-80
2022/07/21 10:36:11;;;;;;;30.50;27.27;;;;;;;;;;5026362;28;20076;-80
2022/07/21 10:38:37;;;;;;;32.75;28.25;;;;;;;;;;5009052;28;20049;-79
2022/07/21 10:41:05;;;;;;;32.50;29.08;;;;;;;;;;4962735;28;20045;-79
2022/07/21 10:43:30;;;;;;;31.83;27.70;;;;;;;;;;5020335;28;20150;-79
2022/07/21 10:45:56;;;;;;;30.15;24.63;;;;;;;;;;4999080;28;20050;-79
2022/07/21 10:48:36;;;;;;;28.27;25.25;;;;;;;;;;5004797;28;20497;-79
2022/07/21 10:51:07;;;;;;;31.35;25.85;;;;;;;;;;4999289;28;20499;-79
2022/07/21 10:53:33;;;;;;;29.92;26.15;;;;;;;;;;5003640;28;20077;-77
2022/07/21 10:55:58;;;;;;;30.20;25.23;;;;;;;;;;4990459;28;20550;-78
2022/07/21 10:58:26;;;;;;;29.15;23.77;;;;;;;;;;4991083;28;20046;-78
2022/07/21 11:01:01;;;;;;;29.75;23.92;;;;;;;;;;5022883;28;20478;-78
2022/07/21 11:03:31;;;;;;;33.00;26.77;;;;;;;;;;5022501;28;20034;-78
2022/07/21 11:06:11;;;;;;;32.25;28.67;;;;;;;;;;4988632;28;20037;-78
2022/07/21 11:09:02;;;;;;;39.38;30.88;;;;;;;;;;4997062;28;20109;-77
2022/07/21 11:11:27;;;;;;;53.20;37.25;;;;;;;;;;5018178;28;20042;-78
2022/07/21 11:14:02;;;;;;;51.25;38.22;;;;;;;;;;5004119;28;20048;-78
2022/07/21 11:16:40;;;;;;;44.95;38.53;;;;;;;;;;5000404;28;20034;-78
2022/07/21 11:19:06;;;;;;;48.17;40.38;;;;;;;;;;5014120;28;20046;-78
2022/07/21 11:21:31;;;;;;;50.42;40.90;;;;;;;;;;5006941;28;20057;-78
2022/07/21 11:23:56;;;;;;;53.95;42.28;;;;;;;;;;5006321;28;20058;-78
2022/07/21 11:26:25;;;;;;;56.17;43.85;;;;;;;;;;5022170;28;20184;-78
2022/07/21 11:29:04;;;;;;;46.10;39.97;;;;;;;;;;5004470;28;20038;-78
2022/07/21 11:31:29;;;;;;;52.70;40.05;;;;;;;;;;4990162;28;20085;-78
2022/07/21 11:33:55;;;;;;;45.15;39.00;;;;;;;;;;4994024;28;20106;-78
2022/07/21 11:36:30;;;;;;;48.90;41.65;;;;;;;;;;5005664;28;20084;-78
2022/07/21 11:39:06;;;;;;;45.30;35.53;;;;;;;;;;5003975;28;20046;-78
2022/07/21 11:41:32;;;;;;;48.08;35.17;;;;;;;;;;4996393;28;20048;-78
2022/07/21 11:43:57;;;;;;;41.45;31.08;;;;;;;;;;5003451;28;20030;-77
2022/07/21 11:46:23;;;;;;;38.70;31.02;;;;;;;;;;4998627;28;20048;-77
2022/07/21 11:48:48;;;;;;;40.85;33.33;;;;;;;;;;4989355;28;20053;-79
2022/07/21 11:51:13;;;;;;;49.20;34.58;;;;;;;;;;5005684;28;20057;-79
2022/07/21 11:53:45;;;;;;;44.10;30.42;;;;;;;;;;4998290;28;20069;-79
2022/07/21 11:56:14;;;;;;;39.45;30.00;;;;;;;;;;4982816;28;20037;-79
2022/07/21 11:58:40;;;;;;;45.20;29.73;;;;;;;;;;4999238;28;20035;-79
2022/07/21 12:01:06;;;;;;;41.72;31.38;;;;;;;;;;5001817;28;20037;-79
2022/07/21 12:03:32;;;;;;;46.10;35.38;;;;;;;;;;5016366;28;20598;-78
2022/07/21 12:05:57;;;;;;;53.63;35.38;;;;;;;;;;4997384;28;20341;-77
2022/07/21 12:08:23;;;;;;;47.35;34.75;;;;;;;;;;4994513;28;20152;-77
2022/07/21 12:10:48;;;;;;;45.70;33.47;;;;;;;;;;4988906;28;20084;-77
2022/07/21 12:13:13;;;;;;;41.88;29.27;;;;;;;;;;5024596;28;20069;-77
2022/07/21 12:15:41;;;;;;;44.80;30.52;;;;;;;;;;4984911;28;20081;-77
2022/07/21 12:18:18;;;;;;;39.38;28.23;;;;;;;;;;5006826;28;20053;-77
2022/07/21 12:20:43;;;;;;;39.45;26.10;;;;;;;;;;4992449;28;20470;-77
2022/07/21 12:23:23;;;;;;;33.58;24.85;;;;;;;;;;5009043;28;20044;-77
2022/07/21 12:25:48;;;;;;;33.47;24.63;;;;;;;;;;5009874;28;20510;-77
2022/07/21 12:28:14;;;;;;;27.80;21.55;;;;;;;;;;5021207;28;20060;-77
2022/07/21 12:30:45;;;;;;;32.58;23.13;;;;;;;;;;5002943;28;20037;-77
2022/07/21 12:33:15;;;;;;;31.63;22.38;;;;;;;;;;4991388;28;20026;-77
2022/07/21 12:35:42;;;;;;;30.45;22.42;;;;;;;;;;5008082;28;20034;-77
2022/07/21 12:38:12;;;;;;;28.02;21.40;;;;;;;;;;5004783;28;20490;-77
2022/07/21 12:40:40;;;;;;;24.98;20.58;;;;;;;;;;5002197;28;20034;-77
2022/07/21 12:43:16;;;;;;;23.67;18.60;;;;;;;;;;4991349;28;20041;-77
2022/07/21 12:45:45;;;;;;;20.05;17.50;;;;;;;;;;4990997;28;20076;-77
2022/07/21 12:48:13;;;;;;;18.23;15.95;;;;;;;;;;5014948;28;20038;-78
2022/07/21 12:50:39;;;;;;;18.05;14.65;;;;;;;;;;5007685;28;20485;-78
2022/07/21 12:53:13;;;;;;;17.58;14.75;;;;;;;;;;4992106;28;20034;-77
2022/07/21 12:55:39;;;;;;;19.83;16.38;;;;;;;;;;4969589;28;20018;-77
2022/07/21 12:58:06;;;;;;;18.60;15.23;;;;;;;;;;5000520;28;20053;-78
2022/07/21 13:00:32;;;;;;;21.42;17.23;;;;;;;;;;4999775;28;20084;-78
2022/07/21 13:02:57;;;;;;;21.73;18.27;;;;;;;;;;5007603;28;20038;-78
2022/07/21 13:05:23;;;;;;;21.48;17.95;;;;;;;;;;5006403;28;20026;-78
2022/07/21 13:07:51;;;;;;;23.58;19.63;;;;;;;;;;5002298;28;20062;-78
2022/07/21 13:10:17;;;;;;;23.83;19.50;;;;;;;;;;4992871;28;20076;-78
2022/07/21 13:12:42;;;;;;;21.30;19.10;;;;;;;;;;4975708;28;20474;-77
2022/07/21 13:15:08;;;;;;;21.58;18.95;;;;;;;;;;5007011;28;20036;-77
2022/07/21 13:17:33;;;;;;;20.48;18.30;;;;;;;;;;4997304;28;20095;-77
2022/07/21 13:19:58;;;;;;;21.63;17.92;;;;;;;;;;4982394;28;20061;-77
2022/07/21 13:22:24;;;;;;;23.40;18.67;;;;;;;;;;4991462;28;20026;-77
2022/07/21 13:24:49;;;;;;;22.00;17.90;;;;;;;;;;5006801;28;20050;-77
2022/07/21 13:27:15;;;;;;;18.80;16.40;;;;;;;;;;4991548;28;20482;-77
2022/07/21 13:29:40;;;;;;;18.42;16.52;;;;;;;;;;5004369;28;20064;-77
2022/07/21 13:32:08;;;;;;;19.30;16.30;;;;;;;;;;4985106;28;20038;-77
2022/07/21 13:34:34;;;;;;;21.88;16.45;;;;;;;;;;5006958;28;20892;-78
2022/07/21 13:37:00;;;;;;;17.98;15.23;;;;;;;;;;5007151;28;20026;-78
2022/07/21 13:39:26;;;;;;;19.55;17.35;;;;;;;;;;5006551;28;20034;-78
2022/07/21 13:41:55;;;;;;;17.10;15.30;;;;;;;;;;5022508;28;22416;-79
2022/07/21 13:44:20;;;;;;;19.38;16.90;;;;;;;;;;5006662;28;20482;-79
2022/07/21 13:46:46;;;;;;;17.05;15.18;;;;;;;;;;4982246;28;20046;-79
2022/07/21 13:49:11;;;;;;;24.63;15.60;;;;;;;;;;5006226;28;20470;-79
2022/07/21 13:51:36;;;;;;;20.48;16.90;;;;;;;;;;4974504;28;20109;-78
2022/07/21 13:54:02;;;;;;;20.20;15.93;;;;;;;;;;4998820;28;20034;-78
2022/07/21 13:56:27;;;;;;;15.77;13.73;;;;;;;;;;5000898;28;20113;-78
2022/07/21 13:58:53;;;;;;;16.58;14.93;;;;;;;;;;5007547;28;20552;-79
2022/07/21 14:01:18;;;;;;;16.02;14.40;;;;;;;;;;5009292;28;20053;-79
2022/07/21 14:03:44;;;;;;;15.20;13.60;;;;;;;;;;5006706;28;20129;-79
2022/07/21 14:06:10;;;;;;;15.60;14.00;;;;;;;;;;4987823;28;20046;-79
2022/07/21 14:08:35;;;;;;;16.92;13.65;;;;;;;;;;5015141;28;20038;-79
2022/07/21 14:11:01;;;;;;;14.02;12.57;;;;;;;;;;4987662;28;20042;-79
2022/07/21 14:13:26;;;;;;;15.35;12.68;;;;;;;;;;5020453;28;20042;-79
2022/07/21 14:15:51;;;;;;;15.15;12.07;;;;;;;;;;5022032;28;20065;-79
2022/07/21 14:18:17;;;;;;;13.38;12.05;;;;;;;;;;4996552;28;20518;-79